createdAt,value
2018-07-17T00:01:42.948Z,99441.84
2018-07-17T00:04:08.931Z,99437.28
2018-07-17T00:06:34.913Z,99437.48
2018-07-17T00:09:00.900Z,99440.81
2018-07-17T00:11:26.862Z,99438.27
2018-07-17T00:13:52.825Z,99442.86
2018-07-17T00:16:18.765Z,99441.34
2018-07-17T00:18:44.729Z,99436.32
2018-07-17T00:21:10.695Z,99434.70
2018-07-17T00:23:36.682Z,99435.14
2018-07-17T00:26:02.676Z,99431.33
2018-07-17T00:28:28.634Z,99426.86
2018-07-17T00:30:54.586Z,99424.20
2018-07-17T00:33:20.541Z,99427.80
2018-07-17T00:35:46.493Z,99424.40
2018-07-17T00:38:12.405Z,99421.70
2018-07-17T00:40:38.354Z,99424.36
2018-07-17T00:43:04.303Z,99425.12
2018-07-17T00:45:30.299Z,99422.07
2018-07-17T00:47:56.287Z,99420.94
2018-07-17T00:50:22.275Z,99414.41
2018-07-17T00:52:48.228Z,99413.94
2018-07-17T00:55:14.168Z,99419.80
2018-07-17T00:57:40.141Z,99426.53
2018-07-17T01:00:06.094Z,99419.07
2018-07-17T01:02:32.079Z,99419.25
2018-07-17T01:04:58.103Z,99412.39
2018-07-17T01:07:24.072Z,99424.17
2018-07-17T01:09:50.009Z,99430.37
2018-07-17T01:12:15.944Z,99416.48
2018-07-17T01:14:41.924Z,99419.34
2018-07-17T01:17:07.862Z,99436.25
2018-07-17T01:19:33.823Z,99433.09
2018-07-17T01:21:59.815Z,99418.37
2018-07-17T01:24:25.806Z,99417.48
2018-07-17T01:26:51.778Z,99424.87
2018-07-17T01:29:17.744Z,99435.63
2018-07-17T01:31:43.703Z,99430.66
2018-07-17T01:34:09.657Z,99425.14
2018-07-17T01:36:35.637Z,99428.19
2018-07-17T01:39:01.596Z,99427.60
2018-07-17T01:41:27.582Z,99428.08
2018-07-17T01:43:53.547Z,99423.83
2018-07-17T01:46:19.535Z,99426.22
2018-07-17T01:48:45.497Z,99423.60
2018-07-17T01:51:11.468Z,99427.18
2018-07-17T01:53:37.409Z,99433.62
2018-07-17T01:56:03.350Z,99436.37
2018-07-17T01:58:29.315Z,99427.70
2018-07-17T02:00:55.272Z,99434.41
2018-07-17T02:03:21.243Z,99430.99
2018-07-17T02:05:47.211Z,99430.89
2018-07-17T02:08:13.158Z,99432.34
2018-07-17T02:10:39.123Z,99431.78
2018-07-17T02:13:05.094Z,99430.98
2018-07-17T02:15:31.057Z,99431.45
2018-07-17T02:17:56.990Z,99431.51
2018-07-17T02:20:23.022Z,99429.31
2018-07-17T02:22:48.966Z,99429.95
2018-07-17T02:25:14.963Z,99436.77
2018-07-17T02:27:40.913Z,99427.62
2018-07-17T02:30:06.911Z,99434.63
2018-07-17T02:32:32.860Z,99436.14
2018-07-17T02:34:58.827Z,99431.59
2018-07-17T02:37:24.776Z,99431.31
2018-07-17T02:39:50.715Z,99427.14
2018-07-17T02:42:16.680Z,99428.02
2018-07-17T02:44:42.638Z,99431.36
2018-07-17T02:47:08.572Z,99426.36
2018-07-17T02:49:34.584Z,99425.92
2018-07-17T02:52:00.542Z,99433.04
2018-07-17T02:54:26.529Z,99433.73
2018-07-17T02:56:52.485Z,99437.63
2018-07-17T02:59:18.417Z,99435.38
2018-07-17T03:01:44.423Z,99438.48
2018-07-17T03:04:10.382Z,99441.80
2018-07-17T03:06:36.376Z,99445.18
2018-07-17T03:09:02.317Z,99447.28
2018-07-17T03:11:28.277Z,99448.12
2018-07-17T03:13:54.223Z,99450.88
2018-07-17T03:16:20.169Z,99454.51
2018-07-17T03:18:46.103Z,99454.63
2018-07-17T03:21:12.075Z,99458.00
2018-07-17T03:23:38.049Z,99459.49
2018-07-17T03:26:04.085Z,99462.20
2018-07-17T03:28:30.069Z,99463.34
2018-07-17T03:30:56.009Z,99466.52
2018-07-17T03:33:21.952Z,99466.69
2018-07-17T03:35:47.908Z,99457.80
2018-07-17T03:38:13.918Z,99461.20
2018-07-17T03:40:39.865Z,99459.03
2018-07-17T03:43:05.827Z,99456.92
2018-07-17T03:45:31.815Z,99462.83
2018-07-17T03:47:57.788Z,99459.60
2018-07-17T03:50:23.717Z,99458.09
2018-07-17T03:52:49.659Z,99457.19
2018-07-17T03:55:15.640Z,99458.20
2018-07-17T03:57:41.601Z,99453.09
2018-07-17T04:00:07.565Z,99456.97
2018-07-17T04:02:33.532Z,99447.02
2018-07-17T04:04:59.508Z,99450.94
2018-07-17T04:07:25.452Z,99449.85
2018-07-17T04:09:51.424Z,99452.98
2018-07-17T04:12:17.386Z,99452.67
2018-07-17T04:14:43.361Z,99462.18
2018-07-17T04:17:09.323Z,99450.52
2018-07-17T04:19:35.271Z,99450.23
2018-07-17T04:22:01.228Z,99454.64
2018-07-17T04:24:27.165Z,99459.58
2018-07-17T04:26:53.106Z,99461.13
2018-07-17T04:29:19.060Z,99457.83
2018-07-17T04:31:45.025Z,99456.08
2018-07-17T04:34:10.976Z,99458.69
2018-07-17T04:36:36.956Z,99458.39
2018-07-17T04:39:02.937Z,99463.68
2018-07-17T04:41:28.919Z,99468.75
2018-07-17T04:43:54.894Z,99468.34
2018-07-17T04:46:20.832Z,99465.52
2018-07-17T04:48:46.814Z,99472.94
2018-07-17T04:51:12.756Z,99477.70
2018-07-17T04:53:38.725Z,99479.59
2018-07-17T04:56:04.665Z,99474.08
2018-07-17T04:58:30.637Z,99472.33
2018-07-17T05:00:56.583Z,99474.27
2018-07-17T05:03:22.670Z,99477.69
2018-07-17T05:05:48.629Z,99478.22
2018-07-17T05:08:14.595Z,99482.37
2018-07-17T05:10:40.530Z,99487.31
2018-07-17T05:13:06.468Z,99490.91
2018-07-17T05:15:32.400Z,99495.13
2018-07-17T05:17:58.355Z,99497.37
2018-07-17T05:20:24.310Z,99504.20
2018-07-17T05:22:50.417Z,99502.48
2018-07-17T05:25:16.315Z,99511.22
2018-07-17T05:27:42.284Z,99500.25
2018-07-17T05:30:08.265Z,99516.88
2018-07-17T05:32:34.286Z,99521.44
2018-07-17T05:35:00.258Z,99516.03
2018-07-17T05:37:26.236Z,99523.64
2018-07-17T05:39:52.183Z,99519.38
2018-07-17T05:42:18.130Z,99523.27
2018-07-17T05:44:44.108Z,99531.73
2018-07-17T05:47:10.148Z,99526.25
2018-07-17T05:49:36.098Z,99526.52
2018-07-17T05:52:02.173Z,99528.52
2018-07-17T05:54:28.045Z,99525.92
2018-07-17T05:56:54.003Z,99530.91
2018-07-17T05:59:19.948Z,99525.44
2018-07-17T06:01:45.910Z,99529.13
2018-07-17T06:04:11.883Z,99535.55
2018-07-17T06:06:37.827Z,99531.81
2018-07-17T06:09:03.861Z,99532.08
2018-07-17T06:11:29.831Z,99538.74
2018-07-17T06:13:55.813Z,99531.89
2018-07-17T06:16:21.795Z,99534.88
2018-07-17T06:18:47.795Z,99530.03
2018-07-17T06:21:13.780Z,99530.89
2018-07-17T06:23:39.806Z,99531.84
2018-07-17T06:28:31.523Z,99529.95
2018-07-17T06:30:57.465Z,99526.59
2018-07-17T06:33:23.437Z,99524.81
2018-07-17T06:35:49.425Z,99525.92
2018-07-17T06:38:15.408Z,99521.14
2018-07-17T06:40:41.383Z,99527.89
2018-07-17T06:43:07.369Z,99526.77
2018-07-17T06:45:33.361Z,99520.92
2018-07-17T06:47:59.323Z,99523.38
2018-07-17T06:50:25.353Z,99521.90
2018-07-17T06:52:51.272Z,99513.09
2018-07-17T06:55:17.210Z,99518.21
2018-07-17T06:57:43.173Z,99514.56
2018-07-17T07:00:09.144Z,99510.61
2018-07-17T07:02:35.189Z,99515.31
2018-07-17T07:05:01.131Z,99512.72
2018-07-17T07:07:27.078Z,99512.17
2018-07-17T07:09:54.079Z,99511.88
2018-07-17T07:12:20.048Z,99506.55
2018-07-17T07:14:46.038Z,99507.05
2018-07-17T07:17:11.986Z,99501.43
2018-07-17T07:19:37.918Z,99502.65
2018-07-17T07:22:03.871Z,99495.30
2018-07-17T07:24:29.859Z,99499.42
2018-07-17T07:26:55.816Z,99498.31
2018-07-17T07:29:21.775Z,99497.67
2018-07-17T07:31:47.733Z,99502.48
2018-07-17T07:34:13.723Z,99494.52
2018-07-17T07:36:39.683Z,99497.29
2018-07-17T07:39:05.657Z,99496.25
2018-07-17T07:41:31.610Z,99500.78
2018-07-17T07:43:57.671Z,99491.86
2018-07-17T07:46:23.613Z,99495.91
2018-07-17T07:48:49.560Z,99493.49
2018-07-17T07:51:15.494Z,99490.13
2018-07-17T07:53:41.452Z,99491.33
2018-07-17T07:56:07.407Z,99490.56
2018-07-17T07:58:33.351Z,99494.11
2018-07-17T08:00:59.353Z,99491.31
2018-07-17T08:03:25.349Z,99496.10
2018-07-17T08:05:51.305Z,99492.95
2018-07-17T08:08:17.326Z,99490.77
2018-07-17T08:10:43.274Z,99491.86
2018-07-17T08:13:09.224Z,99485.56
2018-07-17T08:15:35.167Z,99483.50
2018-07-17T08:18:01.129Z,99486.86
2018-07-17T08:20:27.089Z,99484.94
2018-07-17T08:22:53.032Z,99491.37
2018-07-17T08:25:19.017Z,99492.68
2018-07-17T08:27:44.948Z,99497.34
2018-07-17T08:30:10.916Z,99499.72
2018-07-17T08:32:36.853Z,99488.25
2018-07-17T08:35:02.831Z,99487.91
2018-07-17T08:37:28.757Z,99489.64
2018-07-17T08:39:54.734Z,99484.63
2018-07-17T08:42:20.678Z,99480.75
2018-07-17T08:44:46.666Z,99474.67
2018-07-17T08:47:12.622Z,99483.20
2018-07-17T08:49:38.596Z,99482.00
2018-07-17T08:52:04.624Z,99479.52
2018-07-17T08:54:30.659Z,99477.63
2018-07-17T08:56:56.572Z,99480.69
2018-07-17T08:59:22.532Z,99473.58
2018-07-17T09:01:48.520Z,99477.64
2018-07-17T09:04:14.470Z,99470.44
2018-07-17T09:06:40.422Z,99480.22
2018-07-17T09:09:06.440Z,99475.78
2018-07-17T09:11:32.394Z,99477.72
2018-07-17T09:13:58.359Z,99473.39
2018-07-17T09:16:24.307Z,99479.37
2018-07-17T09:18:50.258Z,99474.10
2018-07-17T09:21:16.237Z,99469.78
2018-07-17T09:23:42.203Z,99474.45
2018-07-17T09:26:08.176Z,99469.64
2018-07-17T09:28:34.136Z,99464.06
2018-07-17T09:31:00.109Z,99463.17
2018-07-17T09:33:26.107Z,99468.15
2018-07-17T09:35:52.082Z,99472.23
2018-07-17T09:38:18.085Z,99463.31
2018-07-17T09:40:44.084Z,99461.52
2018-07-17T09:43:10.041Z,99456.95
2018-07-17T09:45:36.000Z,99455.01
2018-07-17T09:48:01.993Z,99457.70
2018-07-17T09:50:27.988Z,99457.31
2018-07-17T09:52:53.929Z,99459.45
2018-07-17T09:55:19.885Z,99454.61
2018-07-17T09:57:45.845Z,99453.67
2018-07-17T10:00:11.834Z,99452.03
2018-07-17T10:02:37.789Z,99450.86
2018-07-17T10:05:03.792Z,99450.77
2018-07-17T10:07:29.767Z,99456.08
2018-07-17T10:09:55.748Z,99461.63
2018-07-17T10:12:21.726Z,99460.73
2018-07-17T10:14:47.696Z,99453.84
2018-07-17T10:17:13.630Z,99452.70
2018-07-17T10:19:39.640Z,99454.61
2018-07-17T10:22:05.665Z,99455.18
2018-07-17T10:24:31.688Z,99450.23
2018-07-17T10:26:57.645Z,99459.34
2018-07-17T10:29:23.605Z,99460.44
2018-07-17T10:31:49.544Z,99454.83
2018-07-17T10:34:15.514Z,99462.47
2018-07-17T10:36:41.465Z,99459.45
2018-07-17T10:39:07.425Z,99458.76
2018-07-17T10:41:33.383Z,99455.58
2018-07-17T10:43:59.341Z,99452.73
2018-07-17T10:46:25.324Z,99447.45
2018-07-17T10:48:51.256Z,99440.88
2018-07-17T10:51:17.236Z,99438.63
2018-07-17T10:53:43.210Z,99441.39
2018-07-17T10:56:09.204Z,99440.91
2018-07-17T10:58:35.194Z,99441.92
2018-07-17T11:01:01.237Z,99445.53
2018-07-17T11:03:27.179Z,99439.05
2018-07-17T11:05:53.149Z,99443.61
2018-07-17T11:08:19.222Z,99428.63
2018-07-17T11:10:45.176Z,99437.41
2018-07-17T11:13:11.126Z,99434.72
2018-07-17T11:15:37.137Z,99418.77
2018-07-17T11:18:03.080Z,99423.95
2018-07-17T11:20:29.052Z,99427.38
2018-07-17T11:22:55.034Z,99420.90
2018-07-17T11:25:21.007Z,99420.59
2018-07-17T11:27:46.961Z,99422.49
2018-07-17T11:30:12.917Z,99424.95
2018-07-17T11:32:38.860Z,99424.62
2018-07-17T11:35:04.806Z,99421.17
2018-07-17T11:37:30.764Z,99420.24
2018-07-17T11:39:56.717Z,99419.52
2018-07-17T11:42:22.672Z,99415.63
2018-07-17T11:44:48.623Z,99407.28
2018-07-17T11:47:14.578Z,99406.53
2018-07-17T11:49:40.543Z,99407.44
2018-07-17T11:52:06.515Z,99396.85
2018-07-17T11:54:32.477Z,99401.65
2018-07-17T11:56:58.420Z,99409.08
2018-07-17T11:59:24.538Z,99403.05
2018-07-17T12:01:50.348Z,99397.53
2018-07-17T12:04:16.292Z,99401.02
2018-07-17T12:06:42.291Z,99399.55
2018-07-17T12:09:08.273Z,99388.77
2018-07-17T12:11:34.245Z,99391.63
2018-07-17T12:14:00.210Z,99384.52
2018-07-17T12:16:26.167Z,99391.63
2018-07-17T12:18:52.124Z,99395.11
2018-07-17T12:21:18.085Z,99390.49
2018-07-17T12:23:44.096Z,99394.36
2018-07-17T12:26:10.068Z,99390.19
2018-07-17T12:28:36.001Z,99391.87
2018-07-17T12:31:01.955Z,99385.63
2018-07-17T12:33:27.959Z,99380.39
2018-07-17T12:35:53.907Z,99373.19
2018-07-17T12:38:19.970Z,99370.97
2018-07-17T12:40:45.906Z,99368.23
2018-07-17T12:43:11.868Z,99369.88
2018-07-17T12:45:37.844Z,99373.09
2018-07-17T12:48:03.811Z,99365.81
2018-07-17T12:50:29.773Z,99360.09
2018-07-17T12:52:55.741Z,99359.37
2018-07-17T12:55:21.767Z,99356.80
2018-07-17T12:57:48.064Z,99354.20
2018-07-17T13:00:14.021Z,99351.25
2018-07-17T13:02:39.992Z,99350.72
2018-07-17T13:05:05.937Z,99345.90
2018-07-17T13:07:31.930Z,99345.95
2018-07-17T13:09:57.910Z,99347.41
2018-07-17T13:12:23.880Z,99343.32
2018-07-17T13:14:49.867Z,99339.00
2018-07-17T13:17:15.785Z,99346.47
2018-07-17T13:19:41.740Z,99343.17
2018-07-17T13:22:07.674Z,99337.27
2018-07-17T13:24:33.764Z,99341.48
2018-07-17T13:26:59.768Z,99341.61
2018-07-17T13:29:25.729Z,99335.42
2018-07-17T13:31:51.785Z,99335.63
2018-07-17T13:34:17.798Z,99328.61
2018-07-17T13:36:43.822Z,99326.22
2018-07-17T13:39:11.880Z,99332.95
2018-07-17T13:41:37.831Z,99322.17
2018-07-17T13:44:03.772Z,99320.06
2018-07-17T13:46:29.727Z,99322.72
2018-07-17T13:48:55.683Z,99323.57
2018-07-17T13:51:21.709Z,99325.16
2018-07-17T13:53:47.688Z,99323.26
2018-07-17T13:56:13.706Z,99309.07
2018-07-17T13:58:39.637Z,99316.44
2018-07-17T14:01:05.661Z,99304.30
2018-07-17T14:03:31.619Z,99306.53
2018-07-17T14:05:57.578Z,99307.28
2018-07-17T14:08:23.556Z,99309.30
2018-07-17T14:10:49.504Z,99303.95
2018-07-17T14:13:15.468Z,99309.67
2018-07-17T14:15:41.418Z,99303.91
2018-07-17T14:18:07.370Z,99302.53
2018-07-17T14:20:33.336Z,99300.79
2018-07-17T14:22:59.315Z,99295.62
2018-07-17T14:25:25.281Z,99291.50
2018-07-17T14:27:51.327Z,99295.28
2018-07-17T14:30:17.468Z,99296.04
2018-07-17T14:32:43.468Z,99299.34
2018-07-17T14:35:09.409Z,99287.82
2018-07-17T14:37:35.355Z,99284.77
2018-07-17T14:40:01.328Z,99292.15
2018-07-17T14:42:27.387Z,99289.76
2018-07-17T14:44:53.340Z,99292.87
2018-07-17T14:47:19.291Z,99278.88
2018-07-17T14:49:45.262Z,99283.33
2018-07-17T14:52:11.231Z,99283.30
2018-07-17T14:54:37.193Z,99284.59
2018-07-17T14:57:03.159Z,99282.30
2018-07-17T14:59:29.134Z,99284.73
2018-07-17T15:01:55.076Z,99281.05
2018-07-17T15:04:21.045Z,99279.24
2018-07-17T15:06:47.017Z,99269.63
2018-07-17T15:09:13.001Z,99275.14
2018-07-17T15:11:39.064Z,99279.80
2018-07-17T15:14:05.056Z,99276.08
2018-07-17T15:16:31.040Z,99279.98
2018-07-17T15:18:56.988Z,99277.41
2018-07-17T15:21:22.977Z,99283.28
2018-07-17T15:23:48.933Z,99286.53
2018-07-17T15:26:14.999Z,99277.66
2018-07-17T15:28:40.984Z,99283.85
2018-07-17T15:31:06.973Z,99280.91
2018-07-17T15:33:32.908Z,99283.19
2018-07-17T15:35:58.895Z,99282.02
2018-07-17T15:38:24.972Z,99278.23
2018-07-17T15:40:50.877Z,99279.59
2018-07-17T15:43:16.843Z,99286.59
2018-07-17T15:45:42.913Z,99290.73
2018-07-17T15:48:08.892Z,99285.92
2018-07-17T15:50:34.888Z,99281.70
2018-07-17T15:53:00.941Z,99280.31
2018-07-17T15:55:27.109Z,99281.62
2018-07-17T15:57:53.170Z,99279.53
2018-07-17T16:00:19.160Z,99283.28
2018-07-17T16:02:45.114Z,99285.31
2018-07-17T16:05:11.080Z,99284.78
2018-07-17T16:07:37.105Z,99289.66
2018-07-17T16:10:03.132Z,99284.02
2018-07-17T16:12:29.089Z,99275.44
2018-07-17T16:14:55.070Z,99286.02
2018-07-17T16:17:21.005Z,99277.63
2018-07-17T16:19:46.971Z,99286.08
2018-07-17T16:22:12.897Z,99279.62
2018-07-17T16:24:38.913Z,99278.72
2018-07-17T16:27:04.872Z,99279.02
2018-07-17T16:29:31.067Z,99275.98
2018-07-17T16:31:57.135Z,99279.02
2018-07-17T16:34:23.067Z,99279.02
2018-07-17T16:36:49.158Z,99275.34
2018-07-17T16:39:15.093Z,99273.95
2018-07-17T16:41:41.111Z,99272.05
2018-07-17T16:44:07.145Z,99277.41
2018-07-17T16:46:33.146Z,99281.08
2018-07-17T16:48:59.116Z,99266.70
2018-07-17T16:51:25.117Z,99276.89
2018-07-17T16:53:53.111Z,99271.11
2018-07-17T16:56:19.065Z,99265.41
2018-07-17T17:03:48.434Z,99265.02
2018-07-17T17:06:14.405Z,99269.08
2018-07-17T17:08:40.485Z,99274.98
2018-07-17T17:11:06.513Z,99265.86
2018-07-17T17:13:32.457Z,99275.34
2018-07-17T17:15:58.427Z,99273.60
2018-07-17T17:18:24.483Z,99272.76
2018-07-17T17:20:50.541Z,99279.11
2018-07-17T17:23:16.682Z,99275.53
2018-07-17T17:25:42.655Z,99277.47
2018-07-17T17:28:08.703Z,99278.02
2018-07-17T17:30:34.678Z,99274.20
2018-07-17T17:33:00.655Z,99270.56
2018-07-17T17:35:26.654Z,99271.66
2018-07-17T17:37:52.626Z,99279.15
2018-07-17T17:40:18.627Z,99283.34
2018-07-17T17:42:44.584Z,99281.59
2018-07-17T17:45:10.555Z,99278.66
2018-07-17T17:47:36.504Z,99275.38
2018-07-17T17:50:02.466Z,99283.47
2018-07-17T17:52:29.439Z,99281.80
2018-07-17T17:54:55.417Z,99279.95
2018-07-17T17:57:21.350Z,99278.47
2018-07-17T17:59:47.580Z,99272.77
2018-07-17T18:02:14.837Z,99271.21
2018-07-17T18:04:41.680Z,99280.41
2018-07-17T18:07:07.655Z,99278.66
2018-07-17T18:09:33.613Z,99281.62
2018-07-17T18:11:59.661Z,99281.28
2018-07-17T18:14:25.646Z,99285.86
2018-07-17T18:16:51.638Z,99289.09
2018-07-17T18:19:17.621Z,99282.34
2018-07-17T18:21:43.629Z,99289.95
2018-07-17T18:24:09.640Z,99284.76
2018-07-17T18:26:35.646Z,99290.56
2018-07-17T18:29:01.618Z,99290.86
2018-07-17T18:31:27.629Z,99290.12
2018-07-17T18:33:53.603Z,99152.89
2018-07-17T18:36:19.732Z,99300.98
2018-07-17T18:38:45.705Z,99296.77
2018-07-17T18:41:11.721Z,99298.77
2018-07-17T18:43:37.684Z,99310.38
2018-07-17T18:46:04.749Z,99311.48
2018-07-17T18:48:30.720Z,99314.55
2018-07-17T18:50:56.676Z,99249.39
2018-07-17T18:53:22.772Z,99324.67
2018-07-17T18:55:48.780Z,99323.74
2018-07-17T18:58:16.268Z,99327.62
2018-07-17T19:00:43.322Z,99327.48
2018-07-17T19:05:42.234Z,99332.44
2018-07-17T19:08:09.132Z,99339.55
2018-07-17T19:10:35.850Z,99342.23
2018-07-17T19:13:01.931Z,99336.53
2018-07-17T19:15:28.099Z,99344.40
2018-07-17T19:17:55.249Z,99352.42
2018-07-17T19:20:21.337Z,99359.63
2018-07-17T19:22:47.445Z,99355.75
2018-07-17T19:25:13.486Z,99359.06
2018-07-17T19:27:39.533Z,99370.44
2018-07-17T19:30:05.580Z,99374.86
2018-07-17T19:32:31.722Z,99377.53
2018-07-17T19:34:57.781Z,99379.19
2018-07-17T19:37:23.813Z,99384.05
2018-07-17T19:39:51.014Z,99391.03
2018-07-17T19:42:17.060Z,99393.16
2018-07-17T19:44:43.083Z,99401.70
2018-07-17T19:47:09.214Z,99396.02
2018-07-17T19:49:35.295Z,99403.27
2018-07-17T19:52:01.370Z,99407.18
2018-07-17T19:54:28.537Z,99408.92
2018-07-17T19:56:57.995Z,99406.42
2018-07-17T19:59:24.100Z,99409.72
2018-07-17T20:01:50.225Z,99411.19
2018-07-17T20:04:17.464Z,99412.64
2018-07-17T20:06:45.580Z,99415.22
2018-07-17T20:09:11.783Z,99423.70
2018-07-17T20:11:37.847Z,99426.36
2018-07-17T20:14:05.954Z,99423.79
2018-07-17T20:16:31.998Z,99433.16
2018-07-17T20:18:58.080Z,99432.51
2018-07-17T20:21:25.122Z,99437.22
2018-07-17T20:23:51.115Z,99441.09
2018-07-17T20:26:17.159Z,99447.08
2018-07-17T20:28:43.305Z,99450.28
2018-07-17T20:31:11.496Z,99451.63
2018-07-17T20:33:39.700Z,99447.92
2018-07-17T20:36:05.735Z,99452.66
2018-07-17T20:38:31.778Z,99449.31
2018-07-17T20:40:57.902Z,99458.97
2018-07-17T20:43:23.922Z,99461.38
2018-07-17T20:45:51.034Z,99459.03
2018-07-17T20:48:17.155Z,99456.62
2018-07-17T20:50:43.226Z,99456.23
2018-07-17T20:53:09.270Z,99460.48
2018-07-17T20:55:35.293Z,99456.03
2018-07-17T20:58:01.384Z,99458.44
2018-07-17T21:00:28.505Z,99461.30
2018-07-17T21:02:54.492Z,99460.84
2018-07-17T21:05:20.534Z,99462.97
2018-07-17T21:07:46.646Z,99461.80
2018-07-17T21:10:12.817Z,99460.42
2018-07-17T21:12:39.319Z,99464.81
2018-07-17T21:15:05.399Z,99463.51
2018-07-17T21:17:32.492Z,99460.23
2018-07-17T21:19:58.508Z,99466.17
2018-07-17T21:22:24.582Z,99460.76
2018-07-17T21:24:50.574Z,99466.42
2018-07-17T21:27:16.568Z,99466.97
2018-07-17T21:29:42.680Z,99472.61
2018-07-17T21:32:08.715Z,99474.06
2018-07-17T21:34:34.710Z,99476.20
2018-07-17T21:37:00.752Z,99477.08
2018-07-17T21:39:26.731Z,99475.69
2018-07-17T21:41:52.720Z,99470.55
2018-07-17T21:44:23.543Z,99473.52
2018-07-17T21:46:49.603Z,99471.88
2018-07-17T21:49:15.565Z,99473.64
2018-07-17T21:51:41.541Z,99479.48
2018-07-17T21:54:07.568Z,99480.52
2018-07-17T21:56:34.412Z,99480.63
2018-07-17T21:59:00.421Z,99480.56
2018-07-17T22:01:26.484Z,99481.78
2018-07-17T22:03:52.497Z,99483.57
2018-07-17T22:06:18.558Z,99481.52
2018-07-17T22:08:44.655Z,99481.64
2018-07-17T22:11:10.704Z,99478.76
2018-07-17T22:13:36.750Z,99475.63
2018-07-17T22:16:02.764Z,99476.17
2018-07-17T22:18:28.755Z,99481.02
2018-07-17T22:20:54.765Z,99484.94
2018-07-17T22:23:20.822Z,99485.24
2018-07-17T22:25:46.816Z,99477.23
2018-07-17T22:28:12.802Z,99476.09
2018-07-17T22:30:38.833Z,99476.17
2018-07-17T22:33:04.955Z,99475.91
2018-07-17T22:35:30.964Z,99474.29
2018-07-17T22:37:56.996Z,99478.59
2018-07-17T22:40:22.974Z,99474.69
2018-07-17T22:42:48.930Z,99475.03
2018-07-17T22:45:14.903Z,99470.45
2018-07-17T22:47:40.873Z,99471.59
2018-07-17T22:50:06.917Z,99469.08
2018-07-17T22:52:32.938Z,99472.73
2018-07-17T22:54:58.999Z,99475.03
2018-07-17T22:57:25.080Z,99472.34
2018-07-17T22:59:51.071Z,99468.73
2018-07-17T23:02:17.213Z,99472.14
2018-07-17T23:04:43.271Z,99470.34
2018-07-17T23:07:09.574Z,99476.25
2018-07-17T23:09:35.662Z,99476.44
2018-07-17T23:12:01.711Z,99470.81
2018-07-17T23:14:27.647Z,99472.86
2018-07-17T23:16:54.237Z,99472.02
2018-07-17T23:19:20.891Z,99472.24
2018-07-17T23:21:47.404Z,99475.37
2018-07-17T23:24:13.456Z,99474.45
2018-07-17T23:26:40.654Z,99478.67
2018-07-17T23:29:06.621Z,99479.04
2018-07-17T23:31:32.621Z,99481.91
2018-07-17T23:33:58.594Z,99485.61
2018-07-17T23:36:24.547Z,99486.97
2018-07-17T23:38:50.550Z,99479.12
2018-07-17T23:41:16.543Z,99478.16
2018-07-17T23:43:42.507Z,99474.64
2018-07-17T23:46:08.490Z,99478.78
2018-07-17T23:48:34.478Z,99482.53
2018-07-17T23:51:00.519Z,99485.43
2018-07-17T23:53:26.506Z,99483.70
2018-07-17T23:55:52.491Z,99475.81
2018-07-17T23:58:18.474Z,99480.91
